Terminal Aerodrome Forecast
Issued by NWS

Home | Current Version | Previous Version | Text Only | Print | Product List | Glossary On
Versions: 1 2 3 4 5 6 7 8 9 10 11 12 13 14 15 16 17 18 19 20 21 22 23 24 25 26 27 28 29 30 31 32 33 34 35 36 37 38 39 40 41 42 43 44 45 46 47
000
FTUS43 KDTX 040758 AAA
TAFYIP
TAF AMD
KYIP 040758Z 0408/0506 15005KT P6SM SCT008 BKN035
      TEMPO 0409/0412 5SM BR BKN006 BKN035
     FM041200 17003KT 6SM BR SCT008 BKN025
     FM041400 17006KT P6SM BKN035
     FM041800 17007KT P6SM BKN040
     FM050300 15003KT P6SM BKN040=

USA.gov is the U.S. government's official web portal to all federal, state and local government web resources and services.